sensor_id;sensor_type;location;lat;lon;timestamp;P1;durP1;ratioP1;P2;durP2;ratioP2
2049;SDS011;8478;49.208;8.806;2023-08-24T00:00:09;8.20;;;7.70;;
2049;SDS011;8478;49.208;8.806;2023-08-24T00:02:36;7.60;;;7.10;;
2049;SDS011;8478;49.208;8.806;2023-08-24T00:05:02;7.97;;;7.27;;
2049;SDS011;8478;49.208;8.806;2023-08-24T00:07:28;7.73;;;7.27;;
2049;SDS011;8478;49.208;8.806;2023-08-24T00:09:54;7.70;;;7.20;;
2049;SDS011;8478;49.208;8.806;2023-08-24T00:12:20;8.10;;;7.67;;
2049;SDS011;8478;49.208;8.806;2023-08-24T00:14:46;7.30;;;6.80;;
2049;SDS011;8478;49.208;8.806;2023-08-24T00:17:12;7.70;;;7.20;;
2049;SDS011;8478;49.208;8.806;2023-08-24T00:19:37;7.63;;;7.13;;
2049;SDS011;8478;49.208;8.806;2023-08-24T00:22:03;7.90;;;7.40;;
2049;SDS011;8478;49.208;8.806;2023-08-24T00:24:29;8.07;;;7.47;;
2049;SDS011;8478;49.208;8.806;2023-08-24T00:26:54;7.87;;;7.37;;
2049;SDS011;8478;49.208;8.806;2023-08-24T00:29:20;8.13;;;7.50;;
2049;SDS011;8478;49.208;8.806;2023-08-24T00:31:47;8.17;;;7.60;;
2049;SDS011;8478;49.208;8.806;2023-08-24T00:34:12;8.03;;;7.53;;
2049;SDS011;8478;49.208;8.806;2023-08-24T00:36:38;6.90;;;6.50;;
2049;SDS011;8478;49.208;8.806;2023-08-24T00:39:04;7.10;;;6.70;;
2049;SDS011;8478;49.208;8.806;2023-08-24T00:41:29;8.00;;;7.50;;
2049;SDS011;8478;49.208;8.806;2023-08-24T00:43:55;8.03;;;7.43;;
2049;SDS011;8478;49.208;8.806;2023-08-24T00:46:21;8.10;;;7.67;;
2049;SDS011;8478;49.208;8.806;2023-08-24T00:48:47;7.50;;;7.03;;
2049;SDS011;8478;49.208;8.806;2023-08-24T00:51:14;8.30;;;7.80;;
2049;SDS011;8478;49.208;8.806;2023-08-24T00:53:40;8.73;;;8.10;;
2049;SDS011;8478;49.208;8.806;2023-08-24T00:56:05;8.13;;;7.63;;
2049;SDS011;8478;49.208;8.806;2023-08-24T00:58:32;7.93;;;7.50;;
2049;SDS011;8478;49.208;8.806;2023-08-24T01:00:58;7.57;;;6.97;;
2049;SDS011;8478;49.208;8.806;2023-08-24T01:03:24;8.37;;;7.67;;
2049;SDS011;8478;49.208;8.806;2023-08-24T01:05:50;7.63;;;6.60;;
2049;SDS011;8478;49.208;8.806;2023-08-24T01:08:17;8.40;;;7.90;;
2049;SDS011;8478;49.208;8.806;2023-08-24T01:13:39;8.43;;;7.93;;
2049;SDS011;8478;49.208;8.806;2023-08-24T01:16:20;7.07;;;6.57;;
2049;SDS011;8478;49.208;8.806;2023-08-24T01:18:53;7.60;;;7.20;;
2049;SDS011;8478;49.208;8.806;2023-08-24T01:21:25;8.77;;;8.20;;
2049;SDS011;8478;49.208;8.806;2023-08-24T01:26:51;8.23;;;7.73;;
2049;SDS011;8478;49.208;8.806;2023-08-24T01:29:20;8.17;;;7.67;;
2049;SDS011;8478;49.208;8.806;2023-08-24T01:31:47;8.30;;;7.80;;
2049;SDS011;8478;49.208;8.806;2023-08-24T01:34:14;7.87;;;7.37;;
2049;SDS011;8478;49.208;8.806;2023-08-24T01:36:40;7.90;;;7.40;;
2049;SDS011;8478;49.208;8.806;2023-08-24T01:39:07;8.20;;;7.50;;
2049;SDS011;8478;49.208;8.806;2023-08-24T01:41:39;7.77;;;7.37;;
2049;SDS011;8478;49.208;8.806;2023-08-24T01:44:11;7.57;;;7.07;;
2049;SDS011;8478;49.208;8.806;2023-08-24T01:46:38;8.53;;;8.03;;
2049;SDS011;8478;49.208;8.806;2023-08-24T01:49:05;6.90;;;6.30;;
2049;SDS011;8478;49.208;8.806;2023-08-24T01:51:32;8.20;;;7.60;;
2049;SDS011;8478;49.208;8.806;2023-08-24T01:53:59;8.83;;;8.40;;
2049;SDS011;8478;49.208;8.806;2023-08-24T01:56:25;8.40;;;7.80;;
2049;SDS011;8478;49.208;8.806;2023-08-24T01:58:51;8.00;;;7.60;;
2049;SDS011;8478;49.208;8.806;2023-08-24T02:01:17;8.43;;;7.93;;
2049;SDS011;8478;49.208;8.806;2023-08-24T02:03:43;7.97;;;7.47;;
2049;SDS011;8478;49.208;8.806;2023-08-24T02:06:08;8.07;;;7.50;;
2049;SDS011;8478;49.208;8.806;2023-08-24T02:08:34;8.03;;;7.53;;
2049;SDS011;8478;49.208;8.806;2023-08-24T02:11:00;8.03;;;7.63;;
2049;SDS011;8478;49.208;8.806;2023-08-24T02:13:26;8.37;;;7.87;;
2049;SDS011;8478;49.208;8.806;2023-08-24T02:16:00;8.03;;;7.53;;
2049;SDS011;8478;49.208;8.806;2023-08-24T02:18:34;8.20;;;7.70;;
2049;SDS011;8478;49.208;8.806;2023-08-24T02:20:59;8.70;;;8.00;;
2049;SDS011;8478;49.208;8.806;2023-08-24T02:23:25;8.23;;;7.73;;
2049;SDS011;8478;49.208;8.806;2023-08-24T02:25:51;8.43;;;7.83;;
2049;SDS011;8478;49.208;8.806;2023-08-24T02:28:16;7.87;;;7.40;;
2049;SDS011;8478;49.208;8.806;2023-08-24T02:30:42;8.37;;;7.77;;
2049;SDS011;8478;49.208;8.806;2023-08-24T02:33:08;8.77;;;8.20;;
2049;SDS011;8478;49.208;8.806;2023-08-24T02:35:33;8.23;;;7.73;;
2049;SDS011;8478;49.208;8.806;2023-08-24T02:37:59;8.50;;;8.00;;
2049;SDS011;8478;49.208;8.806;2023-08-24T02:40:25;7.87;;;7.37;;
2049;SDS011;8478;49.208;8.806;2023-08-24T02:42:50;7.63;;;7.03;;
2049;SDS011;8478;49.208;8.806;2023-08-24T02:45:16;8.00;;;7.40;;
2049;SDS011;8478;49.208;8.806;2023-08-24T02:47:42;7.40;;;7.00;;
2049;SDS011;8478;49.208;8.806;2023-08-24T02:50:07;7.60;;;7.20;;
2049;SDS011;8478;49.208;8.806;2023-08-24T02:52:33;7.40;;;6.80;;
2049;SDS011;8478;49.208;8.806;2023-08-24T02:54:59;7.20;;;6.70;;
2049;SDS011;8478;49.208;8.806;2023-08-24T02:57:25;8.60;;;7.90;;
2049;SDS011;8478;49.208;8.806;2023-08-24T02:59:50;8.17;;;7.57;;
2049;SDS011;8478;49.208;8.806;2023-08-24T03:02:16;7.80;;;7.07;;
2049;SDS011;8478;49.208;8.806;2023-08-24T03:04:42;8.73;;;8.13;;
2049;SDS011;8478;49.208;8.806;2023-08-24T03:07:07;7.70;;;7.30;;
2049;SDS011;8478;49.208;8.806;2023-08-24T03:09:35;8.33;;;7.73;;
2049;SDS011;8478;49.208;8.806;2023-08-24T03:12:01;7.93;;;7.47;;
2049;SDS011;8478;49.208;8.806;2023-08-24T03:14:27;8.97;;;8.47;;
2049;SDS011;8478;49.208;8.806;2023-08-24T03:16:53;7.63;;;7.23;;
2049;SDS011;8478;49.208;8.806;2023-08-24T03:19:18;8.20;;;7.80;;
2049;SDS011;8478;49.208;8.806;2023-08-24T03:21:44;8.30;;;7.70;;
2049;SDS011;8478;49.208;8.806;2023-08-24T03:24:10;7.60;;;7.10;;
2049;SDS011;8478;49.208;8.806;2023-08-24T03:26:36;8.63;;;8.13;;
2049;SDS011;8478;49.208;8.806;2023-08-24T03:29:01;8.33;;;7.73;;
2049;SDS011;8478;49.208;8.806;2023-08-24T03:31:27;8.67;;;8.17;;
2049;SDS011;8478;49.208;8.806;2023-08-24T03:33:53;7.90;;;7.50;;
2049;SDS011;8478;49.208;8.806;2023-08-24T03:36:18;8.00;;;7.50;;
2049;SDS011;8478;49.208;8.806;2023-08-24T03:38:44;89.73;;;19.00;;
2049;SDS011;8478;49.208;8.806;2023-08-24T03:41:13;15.23;;;9.20;;
2049;SDS011;8478;49.208;8.806;2023-08-24T03:43:38;11.00;;;8.07;;
2049;SDS011;8478;49.208;8.806;2023-08-24T03:46:04;12.10;;;8.53;;
2049;SDS011;8478;49.208;8.806;2023-08-24T03:48:30;10.10;;;8.53;;
2049;SDS011;8478;49.208;8.806;2023-08-24T03:50:57;8.93;;;8.03;;
2049;SDS011;8478;49.208;8.806;2023-08-24T03:53:23;9.40;;;8.70;;
2049;SDS011;8478;49.208;8.806;2023-08-24T03:55:51;8.03;;;7.60;;
2049;SDS011;8478;49.208;8.806;2023-08-24T03:58:17;9.27;;;8.37;;
2049;SDS011;8478;49.208;8.806;2023-08-24T04:00:43;9.77;;;8.93;;
2049;SDS011;8478;49.208;8.806;2023-08-24T04:03:09;8.37;;;7.60;;
2049;SDS011;8478;49.208;8.806;2023-08-24T04:05:36;8.37;;;7.83;;
2049;SDS011;8478;49.208;8.806;2023-08-24T04:08:02;8.00;;;7.50;;
2049;SDS011;8478;49.208;8.806;2023-08-24T04:10:29;9.30;;;8.40;;
2049;SDS011;8478;49.208;8.806;2023-08-24T04:12:55;8.67;;;7.97;;
2049;SDS011;8478;49.208;8.806;2023-08-24T04:15:20;9.00;;;8.50;;
2049;SDS011;8478;49.208;8.806;2023-08-24T04:17:47;8.23;;;7.73;;
2049;SDS011;8478;49.208;8.806;2023-08-24T04:20:13;8.40;;;7.83;;
2049;SDS011;8478;49.208;8.806;2023-08-24T04:22:39;9.27;;;8.67;;
2049;SDS011;8478;49.208;8.806;2023-08-24T04:25:05;8.43;;;8.03;;
2049;SDS011;8478;49.208;8.806;2023-08-24T04:27:31;9.40;;;8.60;;
2049;SDS011;8478;49.208;8.806;2023-08-24T04:29:57;8.47;;;7.97;;
2049;SDS011;8478;49.208;8.806;2023-08-24T04:32:23;9.20;;;8.70;;
2049;SDS011;8478;49.208;8.806;2023-08-24T04:34:49;9.40;;;8.63;;
2049;SDS011;8478;49.208;8.806;2023-08-24T04:37:15;8.90;;;8.40;;
2049;SDS011;8478;49.208;8.806;2023-08-24T04:39:40;8.73;;;8.13;;
2049;SDS011;8478;49.208;8.806;2023-08-24T04:42:06;8.40;;;7.80;;
2049;SDS011;8478;49.208;8.806;2023-08-24T04:44:32;8.00;;;7.37;;
2049;SDS011;8478;49.208;8.806;2023-08-24T04:46:58;8.80;;;8.40;;
2049;SDS011;8478;49.208;8.806;2023-08-24T04:49:24;8.20;;;7.73;;
2049;SDS011;8478;49.208;8.806;2023-08-24T04:51:49;8.40;;;7.77;;
2049;SDS011;8478;49.208;8.806;2023-08-24T04:54:15;8.83;;;8.33;;
2049;SDS011;8478;49.208;8.806;2023-08-24T04:56:41;8.67;;;8.10;;
2049;SDS011;8478;49.208;8.806;2023-08-24T04:59:06;9.10;;;8.50;;
2049;SDS011;8478;49.208;8.806;2023-08-24T05:01:33;9.00;;;8.50;;
2049;SDS011;8478;49.208;8.806;2023-08-24T05:04:00;8.97;;;8.47;;
2049;SDS011;8478;49.208;8.806;2023-08-24T05:06:25;8.60;;;8.20;;
2049;SDS011;8478;49.208;8.806;2023-08-24T05:08:51;9.37;;;8.77;;
2049;SDS011;8478;49.208;8.806;2023-08-24T05:11:18;8.63;;;8.13;;
2049;SDS011;8478;49.208;8.806;2023-08-24T05:13:45;8.80;;;8.30;;
2049;SDS011;8478;49.208;8.806;2023-08-24T05:16:11;8.47;;;8.00;;
2049;SDS011;8478;49.208;8.806;2023-08-24T05:18:37;9.73;;;9.03;;
2049;SDS011;8478;49.208;8.806;2023-08-24T05:21:03;9.40;;;8.90;;
2049;SDS011;8478;49.208;8.806;2023-08-24T05:23:29;8.87;;;8.37;;
2049;SDS011;8478;49.208;8.806;2023-08-24T05:25:56;9.30;;;8.70;;
2049;SDS011;8478;49.208;8.806;2023-08-24T05:28:23;9.30;;;8.83;;
2049;SDS011;8478;49.208;8.806;2023-08-24T05:30:52;8.97;;;8.30;;
2049;SDS011;8478;49.208;8.806;2023-08-24T05:33:22;9.27;;;8.77;;
2049;SDS011;8478;49.208;8.806;2023-08-24T05:35:49;8.70;;;8.00;;
2049;SDS011;8478;49.208;8.806;2023-08-24T05:38:15;8.27;;;7.87;;
2049;SDS011;8478;49.208;8.806;2023-08-24T05:40:46;9.20;;;8.70;;
2049;SDS011;8478;49.208;8.806;2023-08-24T05:43:13;9.23;;;8.53;;
2049;SDS011;8478;49.208;8.806;2023-08-24T05:45:39;11.03;;;9.17;;
2049;SDS011;8478;49.208;8.806;2023-08-24T05:48:06;9.93;;;8.93;;
2049;SDS011;8478;49.208;8.806;2023-08-24T05:50:32;9.50;;;8.80;;
2049;SDS011;8478;49.208;8.806;2023-08-24T05:52:59;10.00;;;9.20;;
2049;SDS011;8478;49.208;8.806;2023-08-24T05:55:24;8.97;;;8.23;;
2049;SDS011;8478;49.208;8.806;2023-08-24T05:57:50;8.63;;;7.93;;
2049;SDS011;8478;49.208;8.806;2023-08-24T06:00:16;7.90;;;7.50;;
2049;SDS011;8478;49.208;8.806;2023-08-24T06:02:42;8.10;;;7.50;;
2049;SDS011;8478;49.208;8.806;2023-08-24T06:05:07;8.73;;;8.17;;
2049;SDS011;8478;49.208;8.806;2023-08-24T06:07:34;8.33;;;7.93;;
2049;SDS011;8478;49.208;8.806;2023-08-24T06:10:00;8.50;;;8.00;;
2049;SDS011;8478;49.208;8.806;2023-08-24T06:12:25;8.03;;;7.43;;
2049;SDS011;8478;49.208;8.806;2023-08-24T06:14:51;8.17;;;7.63;;
2049;SDS011;8478;49.208;8.806;2023-08-24T06:17:17;8.67;;;8.17;;
2049;SDS011;8478;49.208;8.806;2023-08-24T06:19:42;9.17;;;8.53;;
2049;SDS011;8478;49.208;8.806;2023-08-24T06:22:08;8.03;;;7.63;;
2049;SDS011;8478;49.208;8.806;2023-08-24T06:24:34;8.40;;;7.90;;
2049;SDS011;8478;49.208;8.806;2023-08-24T06:27:00;8.43;;;7.90;;
2049;SDS011;8478;49.208;8.806;2023-08-24T06:29:28;8.27;;;7.77;;
2049;SDS011;8478;49.208;8.806;2023-08-24T06:31:54;8.27;;;7.77;;
2049;SDS011;8478;49.208;8.806;2023-08-24T06:34:20;8.00;;;7.50;;
2049;SDS011;8478;49.208;8.806;2023-08-24T06:36:46;9.00;;;8.50;;
2049;SDS011;8478;49.208;8.806;2023-08-24T06:39:12;8.67;;;8.17;;
2049;SDS011;8478;49.208;8.806;2023-08-24T06:41:38;9.00;;;8.50;;
2049;SDS011;8478;49.208;8.806;2023-08-24T06:44:03;8.40;;;7.80;;
2049;SDS011;8478;49.208;8.806;2023-08-24T06:46:29;9.27;;;8.67;;
2049;SDS011;8478;49.208;8.806;2023-08-24T06:48:55;9.10;;;8.60;;
2049;SDS011;8478;49.208;8.806;2023-08-24T06:51:21;8.10;;;7.70;;
2049;SDS011;8478;49.208;8.806;2023-08-24T06:53:46;8.90;;;8.40;;
2049;SDS011;8478;49.208;8.806;2023-08-24T06:56:13;8.90;;;8.30;;
2049;SDS011;8478;49.208;8.806;2023-08-24T06:58:47;6.85;;;6.35;;
2049;SDS011;8478;49.208;8.806;2023-08-24T07:01:13;8.70;;;8.20;;
2049;SDS011;8478;49.208;8.806;2023-08-24T07:03:38;8.60;;;8.10;;
2049;SDS011;8478;49.208;8.806;2023-08-24T07:06:07;8.17;;;7.73;;
2049;SDS011;8478;49.208;8.806;2023-08-24T07:08:33;8.33;;;7.77;;
2049;SDS011;8478;49.208;8.806;2023-08-24T07:11:00;7.40;;;6.90;;
2049;SDS011;8478;49.208;8.806;2023-08-24T07:13:27;7.23;;;6.83;;
2049;SDS011;8478;49.208;8.806;2023-08-24T07:15:52;8.17;;;7.73;;
2049;SDS011;8478;49.208;8.806;2023-08-24T07:18:18;8.13;;;7.53;;
2049;SDS011;8478;49.208;8.806;2023-08-24T07:20:44;8.50;;;7.90;;
2049;SDS011;8478;49.208;8.806;2023-08-24T07:23:09;8.03;;;7.47;;
2049;SDS011;8478;49.208;8.806;2023-08-24T07:25:35;7.73;;;7.23;;
2049;SDS011;8478;49.208;8.806;2023-08-24T07:28:01;8.10;;;7.60;;
2049;SDS011;8478;49.208;8.806;2023-08-24T07:30:28;8.50;;;8.00;;
2049;SDS011;8478;49.208;8.806;2023-08-24T07:32:55;7.80;;;7.23;;
2049;SDS011;8478;49.208;8.806;2023-08-24T07:35:21;7.37;;;6.90;;
2049;SDS011;8478;49.208;8.806;2023-08-24T07:37:49;7.90;;;6.70;;
2049;SDS011;8478;49.208;8.806;2023-08-24T07:40:16;8.03;;;7.40;;
2049;SDS011;8478;49.208;8.806;2023-08-24T07:42:45;7.20;;;6.60;;
2049;SDS011;8478;49.208;8.806;2023-08-24T07:45:12;6.93;;;6.53;;
2049;SDS011;8478;49.208;8.806;2023-08-24T07:47:39;7.57;;;7.07;;
2049;SDS011;8478;49.208;8.806;2023-08-24T07:50:06;6.73;;;6.30;;
2049;SDS011;8478;49.208;8.806;2023-08-24T07:52:33;6.80;;;6.40;;
2049;SDS011;8478;49.208;8.806;2023-08-24T07:54:59;7.37;;;6.97;;
2049;SDS011;8478;49.208;8.806;2023-08-24T07:57:25;7.20;;;6.70;;
2049;SDS011;8478;49.208;8.806;2023-08-24T07:59:52;7.20;;;6.80;;
2049;SDS011;8478;49.208;8.806;2023-08-24T08:02:17;7.10;;;6.70;;
2049;SDS011;8478;49.208;8.806;2023-08-24T08:04:43;7.53;;;7.13;;
2049;SDS011;8478;49.208;8.806;2023-08-24T08:07:09;7.30;;;7.00;;
2049;SDS011;8478;49.208;8.806;2023-08-24T08:09:36;7.20;;;6.80;;
2049;SDS011;8478;49.208;8.806;2023-08-24T08:12:02;7.63;;;7.23;;
2049;SDS011;8478;49.208;8.806;2023-08-24T08:14:28;7.20;;;6.70;;
2049;SDS011;8478;49.208;8.806;2023-08-24T08:16:54;7.73;;;7.23;;
2049;SDS011;8478;49.208;8.806;2023-08-24T08:19:21;7.53;;;7.13;;
2049;SDS011;8478;49.208;8.806;2023-08-24T08:21:47;7.20;;;6.60;;
2049;SDS011;8478;49.208;8.806;2023-08-24T08:24:13;6.53;;;6.13;;
2049;SDS011;8478;49.208;8.806;2023-08-24T08:26:38;7.27;;;6.80;;
2049;SDS011;8478;49.208;8.806;2023-08-24T08:29:04;7.87;;;7.27;;
2049;SDS011;8478;49.208;8.806;2023-08-24T08:31:30;7.60;;;7.20;;
2049;SDS011;8478;49.208;8.806;2023-08-24T08:33:56;6.90;;;6.60;;
2049;SDS011;8478;49.208;8.806;2023-08-24T08:36:21;7.73;;;7.23;;
2049;SDS011;8478;49.208;8.806;2023-08-24T08:38:47;8.20;;;7.50;;
2049;SDS011;8478;49.208;8.806;2023-08-24T08:41:15;7.30;;;6.90;;
2049;SDS011;8478;49.208;8.806;2023-08-24T08:43:46;8.20;;;7.60;;
2049;SDS011;8478;49.208;8.806;2023-08-24T08:46:13;7.83;;;7.33;;
2049;SDS011;8478;49.208;8.806;2023-08-24T08:48:41;7.10;;;6.67;;
2049;SDS011;8478;49.208;8.806;2023-08-24T08:51:09;6.67;;;6.17;;
2049;SDS011;8478;49.208;8.806;2023-08-24T08:53:35;7.73;;;7.23;;
2049;SDS011;8478;49.208;8.806;2023-08-24T08:56:01;7.30;;;6.90;;
2049;SDS011;8478;49.208;8.806;2023-08-24T08:58:29;7.43;;;6.87;;
2049;SDS011;8478;49.208;8.806;2023-08-24T09:00:56;7.27;;;6.87;;
2049;SDS011;8478;49.208;8.806;2023-08-24T09:03:25;7.70;;;7.30;;
2049;SDS011;8478;49.208;8.806;2023-08-24T09:05:52;8.30;;;7.60;;
2049;SDS011;8478;49.208;8.806;2023-08-24T09:08:18;7.40;;;6.90;;
2049;SDS011;8478;49.208;8.806;2023-08-24T09:10:45;7.83;;;7.37;;
2049;SDS011;8478;49.208;8.806;2023-08-24T09:13:11;7.73;;;7.23;;
2049;SDS011;8478;49.208;8.806;2023-08-24T09:15:37;7.03;;;6.70;;
2049;SDS011;8478;49.208;8.806;2023-08-24T09:18:03;8.23;;;7.53;;
2049;SDS011;8478;49.208;8.806;2023-08-24T09:20:29;7.93;;;7.53;;
2049;SDS011;8478;49.208;8.806;2023-08-24T09:22:55;7.73;;;7.23;;
2049;SDS011;8478;49.208;8.806;2023-08-24T09:25:24;6.93;;;6.60;;
2049;SDS011;8478;49.208;8.806;2023-08-24T09:27:57;8.27;;;7.77;;
2049;SDS011;8478;49.208;8.806;2023-08-24T09:30:32;7.80;;;7.30;;
2049;SDS011;8478;49.208;8.806;2023-08-24T09:33:10;7.53;;;7.07;;
2049;SDS011;8478;49.208;8.806;2023-08-24T09:35:36;6.90;;;6.50;;
2049;SDS011;8478;49.208;8.806;2023-08-24T09:38:18;7.97;;;7.47;;
2049;SDS011;8478;49.208;8.806;2023-08-24T09:40:44;7.40;;;6.90;;
2049;SDS011;8478;49.208;8.806;2023-08-24T09:43:12;8.10;;;7.50;;
2049;SDS011;8478;49.208;8.806;2023-08-24T09:45:45;7.90;;;7.40;;
2049;SDS011;8478;49.208;8.806;2023-08-24T09:48:16;7.70;;;7.30;;
2049;SDS011;8478;49.208;8.806;2023-08-24T09:50:44;7.40;;;6.97;;
2049;SDS011;8478;49.208;8.806;2023-08-24T09:53:14;7.73;;;7.30;;
2049;SDS011;8478;49.208;8.806;2023-08-24T09:55:42;6.93;;;6.43;;
2049;SDS011;8478;49.208;8.806;2023-08-24T09:58:21;7.17;;;6.70;;
2049;SDS011;8478;49.208;8.806;2023-08-24T10:00:47;7.83;;;7.33;;
2049;SDS011;8478;49.208;8.806;2023-08-24T10:03:15;7.10;;;6.70;;
2049;SDS011;8478;49.208;8.806;2023-08-24T10:05:45;8.20;;;7.70;;
2049;SDS011;8478;49.208;8.806;2023-08-24T10:08:16;8.90;;;7.80;;
2049;SDS011;8478;49.208;8.806;2023-08-24T10:10:44;7.90;;;7.30;;
2049;SDS011;8478;49.208;8.806;2023-08-24T10:13:14;8.07;;;7.63;;
2049;SDS011;8478;49.208;8.806;2023-08-24T10:15:46;8.03;;;7.27;;
2049;SDS011;8478;49.208;8.806;2023-08-24T10:18:14;8.27;;;7.67;;
2049;SDS011;8478;49.208;8.806;2023-08-24T10:20:42;8.00;;;7.40;;
2049;SDS011;8478;49.208;8.806;2023-08-24T10:23:10;8.70;;;8.10;;
2049;SDS011;8478;49.208;8.806;2023-08-24T10:25:37;8.47;;;7.87;;
2049;SDS011;8478;49.208;8.806;2023-08-24T10:28:04;8.73;;;8.13;;
2049;SDS011;8478;49.208;8.806;2023-08-24T10:30:32;8.50;;;7.90;;
2049;SDS011;8478;49.208;8.806;2023-08-24T10:33:00;8.10;;;7.60;;
2049;SDS011;8478;49.208;8.806;2023-08-24T10:35:26;9.07;;;8.57;;
2049;SDS011;8478;49.208;8.806;2023-08-24T10:37:53;7.90;;;7.30;;
2049;SDS011;8478;49.208;8.806;2023-08-24T10:40:31;7.60;;;7.10;;
2049;SDS011;8478;49.208;8.806;2023-08-24T10:42:57;8.60;;;7.97;;
2049;SDS011;8478;49.208;8.806;2023-08-24T10:45:24;7.80;;;7.30;;
2049;SDS011;8478;49.208;8.806;2023-08-24T10:47:52;7.83;;;7.43;;
2049;SDS011;8478;49.208;8.806;2023-08-24T10:50:19;7.67;;;7.17;;
2049;SDS011;8478;49.208;8.806;2023-08-24T10:52:45;8.10;;;7.40;;
2049;SDS011;8478;49.208;8.806;2023-08-24T10:55:26;8.40;;;8.00;;
2049;SDS011;8478;49.208;8.806;2023-08-24T10:57:56;7.33;;;6.93;;
2049;SDS011;8478;49.208;8.806;2023-08-24T11:00:24;8.00;;;7.50;;
2049;SDS011;8478;49.208;8.806;2023-08-24T11:02:55;8.20;;;7.80;;
2049;SDS011;8478;49.208;8.806;2023-08-24T11:07:57;8.90;;;8.27;;
2049;SDS011;8478;49.208;8.806;2023-08-24T11:10:34;8.87;;;8.27;;
2049;SDS011;8478;49.208;8.806;2023-08-24T11:13:17;8.60;;;8.00;;
2049;SDS011;8478;49.208;8.806;2023-08-24T11:15:48;9.50;;;8.90;;
2049;SDS011;8478;49.208;8.806;2023-08-24T11:18:23;8.70;;;8.20;;
2049;SDS011;8478;49.208;8.806;2023-08-24T11:23:30;8.90;;;7.97;;
2049;SDS011;8478;49.208;8.806;2023-08-24T11:25:57;9.47;;;8.87;;
2049;SDS011;8478;49.208;8.806;2023-08-24T11:28:24;9.00;;;8.20;;
2049;SDS011;8478;49.208;8.806;2023-08-24T11:30:52;9.70;;;9.03;;
2049;SDS011;8478;49.208;8.806;2023-08-24T11:33:28;8.63;;;8.00;;
2049;SDS011;8478;49.208;8.806;2023-08-24T11:35:55;8.83;;;8.20;;
2049;SDS011;8478;49.208;8.806;2023-08-24T11:38:21;8.70;;;8.00;;
2049;SDS011;8478;49.208;8.806;2023-08-24T11:40:46;9.80;;;9.00;;
2049;SDS011;8478;49.208;8.806;2023-08-24T11:43:12;10.90;;;9.80;;
2049;SDS011;8478;49.208;8.806;2023-08-24T11:45:47;9.33;;;8.63;;
2049;SDS011;8478;49.208;8.806;2023-08-24T11:48:13;8.97;;;8.27;;
2049;SDS011;8478;49.208;8.806;2023-08-24T11:50:39;9.17;;;8.67;;
2049;SDS011;8478;49.208;8.806;2023-08-24T11:53:06;8.80;;;8.30;;
2049;SDS011;8478;49.208;8.806;2023-08-24T11:55:32;9.43;;;8.80;;
2049;SDS011;8478;49.208;8.806;2023-08-24T11:57:58;9.10;;;8.60;;
2049;SDS011;8478;49.208;8.806;2023-08-24T12:00:25;10.27;;;9.57;;
2049;SDS011;8478;49.208;8.806;2023-08-24T12:02:51;8.50;;;8.00;;
2049;SDS011;8478;49.208;8.806;2023-08-24T12:05:25;9.23;;;8.53;;
2049;SDS011;8478;49.208;8.806;2023-08-24T12:07:52;9.90;;;9.30;;
2049;SDS011;8478;49.208;8.806;2023-08-24T12:10:19;10.30;;;9.40;;
2049;SDS011;8478;49.208;8.806;2023-08-24T12:12:45;9.83;;;9.30;;
2049;SDS011;8478;49.208;8.806;2023-08-24T12:15:18;8.43;;;7.73;;
2049;SDS011;8478;49.208;8.806;2023-08-24T12:17:47;10.13;;;9.53;;
2049;SDS011;8478;49.208;8.806;2023-08-24T12:20:20;9.70;;;9.00;;
2049;SDS011;8478;49.208;8.806;2023-08-24T12:22:55;10.90;;;10.20;;
2049;SDS011;8478;49.208;8.806;2023-08-24T12:25:24;9.97;;;9.27;;
2049;SDS011;8478;49.208;8.806;2023-08-24T12:27:51;9.57;;;8.97;;
2049;SDS011;8478;49.208;8.806;2023-08-24T12:30:17;10.13;;;9.43;;
2049;SDS011;8478;49.208;8.806;2023-08-24T12:32:47;8.77;;;8.37;;
2049;SDS011;8478;49.208;8.806;2023-08-24T12:35:15;10.00;;;9.40;;
2049;SDS011;8478;49.208;8.806;2023-08-24T12:37:41;10.50;;;9.80;;
2049;SDS011;8478;49.208;8.806;2023-08-24T12:40:07;9.43;;;8.80;;
2049;SDS011;8478;49.208;8.806;2023-08-24T12:42:33;10.27;;;9.77;;
2049;SDS011;8478;49.208;8.806;2023-08-24T12:44:59;11.10;;;10.30;;
2049;SDS011;8478;49.208;8.806;2023-08-24T12:47:25;10.47;;;9.77;;
2049;SDS011;8478;49.208;8.806;2023-08-24T12:49:51;10.00;;;9.40;;
2049;SDS011;8478;49.208;8.806;2023-08-24T12:52:17;10.20;;;9.60;;
2049;SDS011;8478;49.208;8.806;2023-08-24T12:54:43;8.87;;;8.27;;
2049;SDS011;8478;49.208;8.806;2023-08-24T12:57:09;9.73;;;9.13;;
2049;SDS011;8478;49.208;8.806;2023-08-24T12:59:35;10.43;;;9.43;;
2049;SDS011;8478;49.208;8.806;2023-08-24T13:02:00;9.97;;;9.27;;
2049;SDS011;8478;49.208;8.806;2023-08-24T13:04:26;9.60;;;8.97;;
2049;SDS011;8478;49.208;8.806;2023-08-24T13:06:54;9.63;;;9.00;;
2049;SDS011;8478;49.208;8.806;2023-08-24T13:09:20;9.10;;;8.30;;
2049;SDS011;8478;49.208;8.806;2023-08-24T13:11:46;9.80;;;9.10;;
2049;SDS011;8478;49.208;8.806;2023-08-24T13:14:13;10.50;;;9.70;;
2049;SDS011;8478;49.208;8.806;2023-08-24T13:16:39;10.13;;;9.43;;
2049;SDS011;8478;49.208;8.806;2023-08-24T13:19:05;11.70;;;10.80;;
2049;SDS011;8478;49.208;8.806;2023-08-24T13:21:30;10.63;;;9.83;;
2049;SDS011;8478;49.208;8.806;2023-08-24T13:23:56;10.43;;;9.50;;
2049;SDS011;8478;49.208;8.806;2023-08-24T13:26:22;11.17;;;10.57;;
2049;SDS011;8478;49.208;8.806;2023-08-24T13:28:48;9.70;;;9.00;;
2049;SDS011;8478;49.208;8.806;2023-08-24T13:31:14;11.20;;;10.30;;
2049;SDS011;8478;49.208;8.806;2023-08-24T13:33:40;10.33;;;9.60;;
2049;SDS011;8478;49.208;8.806;2023-08-24T13:36:05;10.30;;;9.50;;
2049;SDS011;8478;49.208;8.806;2023-08-24T13:38:31;9.67;;;9.17;;
2049;SDS011;8478;49.208;8.806;2023-08-24T13:40:57;10.33;;;9.73;;
2049;SDS011;8478;49.208;8.806;2023-08-24T13:43:22;9.90;;;9.10;;
2049;SDS011;8478;49.208;8.806;2023-08-24T13:45:48;12.00;;;11.20;;
2049;SDS011;8478;49.208;8.806;2023-08-24T13:48:14;11.87;;;11.07;;
2049;SDS011;8478;49.208;8.806;2023-08-24T13:50:48;11.00;;;10.37;;
2049;SDS011;8478;49.208;8.806;2023-08-24T13:53:18;11.43;;;10.83;;
2049;SDS011;8478;49.208;8.806;2023-08-24T13:55:44;10.87;;;10.10;;
2049;SDS011;8478;49.208;8.806;2023-08-24T13:58:09;10.57;;;9.87;;
2049;SDS011;8478;49.208;8.806;2023-08-24T14:00:36;11.10;;;10.50;;
2049;SDS011;8478;49.208;8.806;2023-08-24T14:03:02;10.03;;;9.43;;
2049;SDS011;8478;49.208;8.806;2023-08-24T14:05:28;12.03;;;11.03;;
2049;SDS011;8478;49.208;8.806;2023-08-24T14:07:54;10.83;;;10.20;;
2049;SDS011;8478;49.208;8.806;2023-08-24T14:10:20;10.80;;;10.20;;
2049;SDS011;8478;49.208;8.806;2023-08-24T14:12:45;11.77;;;11.00;;
2049;SDS011;8478;49.208;8.806;2023-08-24T14:15:11;10.50;;;9.90;;
2049;SDS011;8478;49.208;8.806;2023-08-24T14:17:37;11.23;;;10.47;;
2049;SDS011;8478;49.208;8.806;2023-08-24T14:20:03;11.03;;;10.33;;
2049;SDS011;8478;49.208;8.806;2023-08-24T14:22:34;11.33;;;10.53;;
2049;SDS011;8478;49.208;8.806;2023-08-24T14:24:59;11.43;;;10.30;;
2049;SDS011;8478;49.208;8.806;2023-08-24T14:27:25;11.07;;;10.40;;
2049;SDS011;8478;49.208;8.806;2023-08-24T14:29:51;11.07;;;10.17;;
2049;SDS011;8478;49.208;8.806;2023-08-24T14:32:17;10.37;;;9.87;;
2049;SDS011;8478;49.208;8.806;2023-08-24T14:34:42;10.67;;;10.03;;
2049;SDS011;8478;49.208;8.806;2023-08-24T14:37:08;9.40;;;8.77;;
2049;SDS011;8478;49.208;8.806;2023-08-24T14:39:34;10.43;;;9.80;;
2049;SDS011;8478;49.208;8.806;2023-08-24T14:42:00;10.87;;;9.87;;
2049;SDS011;8478;49.208;8.806;2023-08-24T14:44:27;11.37;;;10.67;;
2049;SDS011;8478;49.208;8.806;2023-08-24T14:46:53;10.33;;;9.57;;
2049;SDS011;8478;49.208;8.806;2023-08-24T14:49:19;11.10;;;10.10;;
2049;SDS011;8478;49.208;8.806;2023-08-24T14:51:45;15.40;;;10.67;;
2049;SDS011;8478;49.208;8.806;2023-08-24T14:54:11;11.30;;;10.20;;
2049;SDS011;8478;49.208;8.806;2023-08-24T14:56:39;10.20;;;9.50;;
2049;SDS011;8478;49.208;8.806;2023-08-24T14:59:05;12.13;;;11.23;;
2049;SDS011;8478;49.208;8.806;2023-08-24T15:01:31;12.30;;;11.40;;
2049;SDS011;8478;49.208;8.806;2023-08-24T15:03:57;12.50;;;11.30;;
2049;SDS011;8478;49.208;8.806;2023-08-24T15:06:22;10.50;;;9.73;;
2049;SDS011;8478;49.208;8.806;2023-08-24T15:08:48;12.70;;;11.40;;
2049;SDS011;8478;49.208;8.806;2023-08-24T15:11:14;12.00;;;11.30;;
2049;SDS011;8478;49.208;8.806;2023-08-24T15:13:41;12.93;;;12.07;;
2049;SDS011;8478;49.208;8.806;2023-08-24T15:16:07;12.10;;;11.20;;
2049;SDS011;8478;49.208;8.806;2023-08-24T15:18:34;10.77;;;9.97;;
2049;SDS011;8478;49.208;8.806;2023-08-24T15:21:00;11.77;;;10.90;;